sensor_id;sensor_type;location;lat;lon;timestamp;pressure;altitude;pressure_sealevel;temperature;humidity
50011;BME280;35899;50.352;19.390;2024-01-25T00:00:59;97434.58;;;5.40;100.00
50011;BME280;35899;50.352;19.390;2024-01-25T00:03:41;97424.25;;;5.38;100.00
50011;BME280;35899;50.352;19.390;2024-01-25T00:06:10;97438.67;;;5.34;100.00
50011;BME280;35899;50.352;19.390;2024-01-25T00:08:36;97430.83;;;5.34;100.00
50011;BME280;35899;50.352;19.390;2024-01-25T00:11:06;97435.29;;;5.34;100.00
50011;BME280;35899;50.352;19.390;2024-01-25T00:13:36;97439.77;;;5.36;100.00
50011;BME280;35899;50.352;19.390;2024-01-25T00:16:03;97422.36;;;5.37;100.00
50011;BME280;35899;50.352;19.390;2024-01-25T00:18:30;97439.55;;;5.40;100.00
50011;BME280;35899;50.352;19.390;2024-01-25T00:20:57;97443.77;;;5.44;100.00
50011;BME280;35899;50.352;19.390;2024-01-25T00:23:24;97448.77;;;5.47;100.00
50011;BME280;35899;50.352;19.390;2024-01-25T00:25:50;97456.52;;;5.49;100.00
50011;BME280;35899;50.352;19.390;2024-01-25T00:28:17;97464.74;;;5.53;100.00
50011;BME280;35899;50.352;19.390;2024-01-25T00:30:43;97465.12;;;5.55;100.00
50011;BME280;35899;50.352;19.390;2024-01-25T00:33:11;97480.64;;;5.57;100.00
50011;BME280;35899;50.352;19.390;2024-01-25T00:35:38;97466.19;;;5.57;100.00
50011;BME280;35899;50.352;19.390;2024-01-25T00:38:05;97468.17;;;5.56;100.00
50011;BME280;35899;50.352;19.390;2024-01-25T00:40:32;97476.42;;;5.56;100.00
50011;BME280;35899;50.352;19.390;2024-01-25T00:42:59;97455.29;;;5.56;100.00
50011;BME280;35899;50.352;19.390;2024-01-25T00:45:26;97463.29;;;5.57;100.00
50011;BME280;35899;50.352;19.390;2024-01-25T00:47:53;97455.20;;;5.57;100.00
50011;BME280;35899;50.352;19.390;2024-01-25T00:50:21;97449.20;;;5.58;100.00
50011;BME280;35899;50.352;19.390;2024-01-25T00:52:52;97450.55;;;5.58;100.00
50011;BME280;35899;50.352;19.390;2024-01-25T00:55:19;97459.54;;;5.57;100.00
50011;BME280;35899;50.352;19.390;2024-01-25T00:57:46;97464.34;;;5.57;100.00
50011;BME280;35899;50.352;19.390;2024-01-25T01:00:15;97451.14;;;5.60;100.00
50011;BME280;35899;50.352;19.390;2024-01-25T01:02:45;97445.48;;;5.59;100.00
50011;BME280;35899;50.352;19.390;2024-01-25T01:05:15;97437.67;;;5.58;100.00
50011;BME280;35899;50.352;19.390;2024-01-25T01:07:42;97443.68;;;5.58;100.00
50011;BME280;35899;50.352;19.390;2024-01-25T01:10:09;97447.14;;;5.57;100.00
50011;BME280;35899;50.352;19.390;2024-01-25T01:12:36;97456.23;;;5.58;100.00
50011;BME280;35899;50.352;19.390;2024-01-25T01:15:03;97446.98;;;5.57;100.00
50011;BME280;35899;50.352;19.390;2024-01-25T01:17:30;97450.10;;;5.57;100.00
50011;BME280;35899;50.352;19.390;2024-01-25T01:19:57;97436.72;;;5.57;100.00
50011;BME280;35899;50.352;19.390;2024-01-25T01:22:26;97442.85;;;5.57;100.00
50011;BME280;35899;50.352;19.390;2024-01-25T01:24:53;97444.95;;;5.57;100.00
50011;BME280;35899;50.352;19.390;2024-01-25T01:27:21;97438.77;;;5.57;100.00
50011;BME280;35899;50.352;19.390;2024-01-25T01:29:48;97433.52;;;5.56;100.00
50011;BME280;35899;50.352;19.390;2024-01-25T01:32:15;97441.80;;;5.55;100.00
50011;BME280;35899;50.352;19.390;2024-01-25T01:34:44;97432.43;;;5.57;100.00
50011;BME280;35899;50.352;19.390;2024-01-25T01:37:11;97441.00;;;5.57;100.00
50011;BME280;35899;50.352;19.390;2024-01-25T01:39:37;97440.63;;;5.57;100.00
50011;BME280;35899;50.352;19.390;2024-01-25T01:42:05;97446.16;;;5.57;100.00
50011;BME280;35899;50.352;19.390;2024-01-25T01:44:32;97448.15;;;5.55;100.00
50011;BME280;35899;50.352;19.390;2024-01-25T01:47:02;97443.64;;;5.53;100.00
50011;BME280;35899;50.352;19.390;2024-01-25T01:49:28;97451.71;;;5.49;100.00
50011;BME280;35899;50.352;19.390;2024-01-25T01:51:55;97455.83;;;5.46;100.00
50011;BME280;35899;50.352;19.390;2024-01-25T01:54:25;97456.07;;;5.45;100.00
50011;BME280;35899;50.352;19.390;2024-01-25T01:56:52;97449.52;;;5.40;100.00
50011;BME280;35899;50.352;19.390;2024-01-25T01:59:23;97454.55;;;5.36;100.00
50011;BME280;35899;50.352;19.390;2024-01-25T06:59:32;97476.67;;;4.24;100.00
50011;BME280;35899;50.352;19.390;2024-01-25T07:01:59;97490.09;;;4.26;100.00
50011;BME280;35899;50.352;19.390;2024-01-25T07:04:26;97489.84;;;4.28;100.00
50011;BME280;35899;50.352;19.390;2024-01-25T07:06:53;97490.73;;;4.27;100.00
50011;BME280;35899;50.352;19.390;2024-01-25T07:09:20;97492.80;;;4.24;100.00
50011;BME280;35899;50.352;19.390;2024-01-25T07:11:46;97508.43;;;4.19;100.00
50011;BME280;35899;50.352;19.390;2024-01-25T07:14:15;97521.57;;;4.10;100.00
50011;BME280;35899;50.352;19.390;2024-01-25T07:16:43;97522.39;;;4.01;100.00
50011;BME280;35899;50.352;19.390;2024-01-25T07:19:09;97539.32;;;3.95;100.00
50011;BME280;35899;50.352;19.390;2024-01-25T07:21:36;97541.70;;;3.87;100.00
50011;BME280;35899;50.352;19.390;2024-01-25T07:24:03;97539.33;;;3.80;100.00
50011;BME280;35899;50.352;19.390;2024-01-25T07:26:30;97544.77;;;3.74;100.00
50011;BME280;35899;50.352;19.390;2024-01-25T07:28:56;97548.23;;;3.70;100.00
50011;BME280;35899;50.352;19.390;2024-01-25T07:31:26;97549.23;;;3.66;100.00
50011;BME280;35899;50.352;19.390;2024-01-25T07:33:54;97545.73;;;3.65;100.00
50011;BME280;35899;50.352;19.390;2024-01-25T07:36:27;97544.36;;;3.64;100.00
50011;BME280;35899;50.352;19.390;2024-01-25T07:38:53;97542.35;;;3.64;100.00
50011;BME280;35899;50.352;19.390;2024-01-25T07:41:20;97538.52;;;3.65;100.00
50011;BME280;35899;50.352;19.390;2024-01-25T07:43:48;97539.53;;;3.65;100.00
50011;BME280;35899;50.352;19.390;2024-01-25T07:46:16;97544.81;;;3.66;100.00
50011;BME280;35899;50.352;19.390;2024-01-25T07:48:44;97541.87;;;3.66;100.00
50011;BME280;35899;50.352;19.390;2024-01-25T07:51:12;97542.16;;;3.67;100.00
50011;BME280;35899;50.352;19.390;2024-01-25T07:53:41;97547.74;;;3.69;100.00
50011;BME280;35899;50.352;19.390;2024-01-25T07:56:08;97545.38;;;3.68;100.00
50011;BME280;35899;50.352;19.390;2024-01-25T07:58:35;97548.60;;;3.69;100.00
50011;BME280;35899;50.352;19.390;2024-01-25T08:01:05;97539.73;;;3.68;100.00
50011;BME280;35899;50.352;19.390;2024-01-25T08:03:35;97542.01;;;3.67;100.00
50011;BME280;35899;50.352;19.390;2024-01-25T08:06:02;97557.23;;;3.67;100.00
50011;BME280;35899;50.352;19.390;2024-01-25T08:08:29;97535.27;;;3.68;100.00
50011;BME280;35899;50.352;19.390;2024-01-25T08:10:56;97530.60;;;3.69;100.00
50011;BME280;35899;50.352;19.390;2024-01-25T08:13:22;97531.14;;;3.72;100.00
50011;BME280;35899;50.352;19.390;2024-01-25T08:15:52;97531.89;;;3.75;100.00
50011;BME280;35899;50.352;19.390;2024-01-25T08:18:21;97532.64;;;3.77;100.00
50011;BME280;35899;50.352;19.390;2024-01-25T08:20:49;97530.89;;;3.78;100.00
50011;BME280;35899;50.352;19.390;2024-01-25T08:23:16;97537.42;;;3.77;100.00
50011;BME280;35899;50.352;19.390;2024-01-25T08:25:46;97538.11;;;3.77;100.00
50011;BME280;35899;50.352;19.390;2024-01-25T08:28:13;97534.62;;;3.78;100.00
50011;BME280;35899;50.352;19.390;2024-01-25T08:30:39;97531.84;;;3.79;100.00
50011;BME280;35899;50.352;19.390;2024-01-25T08:33:08;97536.88;;;3.81;100.00
50011;BME280;35899;50.352;19.390;2024-01-25T08:35:35;97537.90;;;3.85;100.00
50011;BME280;35899;50.352;19.390;2024-01-25T08:38:07;97536.33;;;3.89;100.00
50011;BME280;35899;50.352;19.390;2024-01-25T08:40:36;97542.98;;;3.93;100.00
50011;BME280;35899;50.352;19.390;2024-01-25T08:43:06;97534.95;;;3.96;100.00
50011;BME280;35899;50.352;19.390;2024-01-25T08:45:35;97538.88;;;3.96;100.00
50011;BME280;35899;50.352;19.390;2024-01-25T08:48:05;97539.11;;;3.99;100.00
50011;BME280;35899;50.352;19.390;2024-01-25T08:50:32;97541.11;;;4.03;100.00
50011;BME280;35899;50.352;19.390;2024-01-25T08:52:59;97545.84;;;4.04;100.00
50011;BME280;35899;50.352;19.390;2024-01-25T08:55:27;97545.56;;;4.06;100.00
50011;BME280;35899;50.352;19.390;2024-01-25T08:57:54;97546.48;;;4.08;100.00
50011;BME280;35899;50.352;19.390;2024-01-25T09:00:20;97544.32;;;4.10;100.00
50011;BME280;35899;50.352;19.390;2024-01-25T09:02:50;97552.67;;;4.15;100.00
50011;BME280;35899;50.352;19.390;2024-01-25T09:05:17;97552.22;;;4.18;100.00
50011;BME280;35899;50.352;19.390;2024-01-25T09:07:47;97549.31;;;4.21;100.00
50011;BME280;35899;50.352;19.390;2024-01-25T09:10:14;97551.14;;;4.25;100.00
50011;BME280;35899;50.352;19.390;2024-01-25T09:12:40;97547.48;;;4.29;100.00
50011;BME280;35899;50.352;19.390;2024-01-25T09:15:11;97545.84;;;4.35;100.00
50011;BME280;35899;50.352;19.390;2024-01-25T09:17:37;97551.09;;;4.39;100.00
50011;BME280;35899;50.352;19.390;2024-01-25T09:20:06;97558.62;;;4.43;100.00
50011;BME280;35899;50.352;19.390;2024-01-25T09:22:33;97557.70;;;4.44;100.00
50011;BME280;35899;50.352;19.390;2024-01-25T09:25:04;97551.21;;;4.44;100.00
50011;BME280;35899;50.352;19.390;2024-01-25T09:27:34;97563.07;;;4.46;100.00
50011;BME280;35899;50.352;19.390;2024-01-25T09:30:01;97564.79;;;4.50;100.00
50011;BME280;35899;50.352;19.390;2024-01-25T09:32:28;97560.77;;;4.48;100.00
50011;BME280;35899;50.352;19.390;2024-01-25T09:34:55;97555.60;;;4.45;100.00
50011;BME280;35899;50.352;19.390;2024-01-25T09:37:24;97563.88;;;4.51;100.00
50011;BME280;35899;50.352;19.390;2024-01-25T09:39:55;97559.98;;;4.63;100.00
50011;BME280;35899;50.352;19.390;2024-01-25T09:42:21;97557.71;;;4.71;100.00
50011;BME280;35899;50.352;19.390;2024-01-25T09:44:48;97563.83;;;4.75;100.00
50011;BME280;35899;50.352;19.390;2024-01-25T09:47:18;97562.76;;;4.86;100.00
50011;BME280;35899;50.352;19.390;2024-01-25T09:49:45;97572.96;;;4.94;100.00
50011;BME280;35899;50.352;19.390;2024-01-25T09:52:13;97569.52;;;4.94;100.00
50011;BME280;35899;50.352;19.390;2024-01-25T09:54:40;97584.82;;;4.93;100.00
50011;BME280;35899;50.352;19.390;2024-01-25T09:57:15;97579.09;;;4.91;100.00
50011;BME280;35899;50.352;19.390;2024-01-25T09:59:45;97579.80;;;4.91;100.00
50011;BME280;35899;50.352;19.390;2024-01-25T10:02:12;97573.93;;;4.88;100.00
50011;BME280;35899;50.352;19.390;2024-01-25T10:04:42;97570.21;;;4.87;100.00
50011;BME280;35899;50.352;19.390;2024-01-25T10:07:09;97567.98;;;4.87;100.00
50011;BME280;35899;50.352;19.390;2024-01-25T10:09:40;97570.76;;;4.90;100.00
50011;BME280;35899;50.352;19.390;2024-01-25T10:12:10;97573.03;;;4.89;100.00
50011;BME280;35899;50.352;19.390;2024-01-25T10:14:45;97569.02;;;4.90;100.00
50011;BME280;35899;50.352;19.390;2024-01-25T10:17:14;97577.05;;;4.94;100.00
50011;BME280;35899;50.352;19.390;2024-01-25T10:19:44;97586.38;;;4.96;100.00
50011;BME280;35899;50.352;19.390;2024-01-25T10:22:13;97582.36;;;4.98;100.00
50011;BME280;35899;50.352;19.390;2024-01-25T10:24:42;97593.80;;;5.01;100.00
50011;BME280;35899;50.352;19.390;2024-01-25T10:27:12;97598.23;;;5.02;100.00
50011;BME280;35899;50.352;19.390;2024-01-25T10:29:38;97598.45;;;5.01;100.00
50011;BME280;35899;50.352;19.390;2024-01-25T10:32:08;97595.51;;;4.99;100.00
50011;BME280;35899;50.352;19.390;2024-01-25T10:34:36;97605.79;;;4.99;100.00
50011;BME280;35899;50.352;19.390;2024-01-25T10:37:06;97603.69;;;4.99;100.00
50011;BME280;35899;50.352;19.390;2024-01-25T10:39:34;97598.42;;;4.99;100.00
50011;BME280;35899;50.352;19.390;2024-01-25T10:42:03;97598.20;;;4.99;100.00
50011;BME280;35899;50.352;19.390;2024-01-25T10:44:31;97605.39;;;5.00;100.00
50011;BME280;35899;50.352;19.390;2024-01-25T10:46:58;97596.89;;;5.02;100.00
50011;BME280;35899;50.352;19.390;2024-01-25T10:49:25;97593.29;;;5.05;100.00
50011;BME280;35899;50.352;19.390;2024-01-25T10:51:53;97597.74;;;5.08;100.00
50011;BME280;35899;50.352;19.390;2024-01-25T10:54:21;97593.63;;;5.12;100.00
50011;BME280;35899;50.352;19.390;2024-01-25T10:56:48;97609.80;;;5.14;100.00
50011;BME280;35899;50.352;19.390;2024-01-25T10:59:15;97605.73;;;5.16;100.00
50011;BME280;35899;50.352;19.390;2024-01-25T11:01:45;97613.91;;;5.20;100.00
50011;BME280;35899;50.352;19.390;2024-01-25T11:04:18;97613.83;;;5.25;100.00
50011;BME280;35899;50.352;19.390;2024-01-25T11:06:48;97618.41;;;5.26;100.00
50011;BME280;35899;50.352;19.390;2024-01-25T11:09:19;97622.73;;;5.25;100.00
50011;BME280;35899;50.352;19.390;2024-01-25T11:11:48;97626.58;;;5.27;100.00
50011;BME280;35899;50.352;19.390;2024-01-25T11:14:16;97626.51;;;5.29;100.00
50011;BME280;35899;50.352;19.390;2024-01-25T11:16:45;97636.42;;;5.26;100.00
50011;BME280;35899;50.352;19.390;2024-01-25T11:19:21;97637.59;;;5.26;100.00
50011;BME280;35899;50.352;19.390;2024-01-25T11:21:50;97639.29;;;5.27;100.00
50011;BME280;35899;50.352;19.390;2024-01-25T11:26:50;97647.09;;;5.25;100.00
50011;BME280;35899;50.352;19.390;2024-01-25T11:29:20;97652.89;;;5.23;100.00
50011;BME280;35899;50.352;19.390;2024-01-25T11:31:50;97646.31;;;5.24;100.00
50011;BME280;35899;50.352;19.390;2024-01-25T11:34:17;97654.86;;;5.21;100.00
50011;BME280;35899;50.352;19.390;2024-01-25T11:36:45;97655.55;;;5.15;100.00
50011;BME280;35899;50.352;19.390;2024-01-25T11:39:13;97662.85;;;5.13;100.00
50011;BME280;35899;50.352;19.390;2024-01-25T11:41:41;97662.73;;;5.08;100.00
50011;BME280;35899;50.352;19.390;2024-01-25T11:44:14;97661.17;;;5.02;100.00
50011;BME280;35899;50.352;19.390;2024-01-25T11:46:42;97664.04;;;5.00;100.00
50011;BME280;35899;50.352;19.390;2024-01-25T11:49:11;97664.23;;;4.99;100.00
50011;BME280;35899;50.352;19.390;2024-01-25T11:51:38;97659.14;;;5.05;100.00
50011;BME280;35899;50.352;19.390;2024-01-25T11:54:05;97657.45;;;5.11;100.00
50011;BME280;35899;50.352;19.390;2024-01-25T11:56:33;97663.15;;;5.14;100.00
50011;BME280;35899;50.352;19.390;2024-01-25T11:59:05;97661.83;;;5.13;100.00
50011;BME280;35899;50.352;19.390;2024-01-25T12:01:32;97663.75;;;5.12;100.00
50011;BME280;35899;50.352;19.390;2024-01-25T12:03:59;97661.02;;;5.08;100.00
50011;BME280;35899;50.352;19.390;2024-01-25T12:06:26;97663.48;;;5.07;100.00
50011;BME280;35899;50.352;19.390;2024-01-25T12:08:54;97664.58;;;5.09;100.00
50011;BME280;35899;50.352;19.390;2024-01-25T12:11:20;97659.94;;;5.16;100.00
50011;BME280;35899;50.352;19.390;2024-01-25T12:13:49;97653.29;;;5.25;100.00
50011;BME280;35899;50.352;19.390;2024-01-25T12:16:16;97658.77;;;5.32;100.00
50011;BME280;35899;50.352;19.390;2024-01-25T12:18:43;97656.05;;;5.35;100.00
50011;BME280;35899;50.352;19.390;2024-01-25T12:21:13;97661.37;;;5.38;100.00
50011;BME280;35899;50.352;19.390;2024-01-25T12:23:40;97665.22;;;5.39;100.00
50011;BME280;35899;50.352;19.390;2024-01-25T12:26:08;97664.84;;;5.34;100.00
50011;BME280;35899;50.352;19.390;2024-01-25T12:28:36;97658.80;;;5.31;100.00
50011;BME280;35899;50.352;19.390;2024-01-25T12:31:05;97660.70;;;5.31;100.00
50011;BME280;35899;50.352;19.390;2024-01-25T12:33:33;97662.00;;;5.26;100.00
50011;BME280;35899;50.352;19.390;2024-01-25T12:36:04;97662.92;;;5.24;100.00
50011;BME280;35899;50.352;19.390;2024-01-25T12:38:31;97659.25;;;5.26;100.00
50011;BME280;35899;50.352;19.390;2024-01-25T12:40:58;97662.38;;;5.28;100.00
50011;BME280;35899;50.352;19.390;2024-01-25T12:43:28;97661.92;;;5.37;100.00
50011;BME280;35899;50.352;19.390;2024-01-25T12:45:56;97666.41;;;5.39;100.00
50011;BME280;35899;50.352;19.390;2024-01-25T12:48:30;97661.94;;;5.40;100.00
50011;BME280;35899;50.352;19.390;2024-01-25T12:50:58;97661.55;;;5.34;100.00
50011;BME280;35899;50.352;19.390;2024-01-25T12:53:24;97661.54;;;5.28;100.00
50011;BME280;35899;50.352;19.390;2024-01-25T12:55:52;97658.90;;;5.26;100.00
50011;BME280;35899;50.352;19.390;2024-01-25T12:58:21;97665.05;;;5.26;100.00
50011;BME280;35899;50.352;19.390;2024-01-25T13:00:49;97674.48;;;5.26;100.00
50011;BME280;35899;50.352;19.390;2024-01-25T13:03:16;97665.86;;;5.24;100.00
50011;BME280;35899;50.352;19.390;2024-01-25T13:05:48;97668.98;;;5.17;100.00
50011;BME280;35899;50.352;19.390;2024-01-25T13:08:15;97662.89;;;5.12;100.00
50011;BME280;35899;50.352;19.390;2024-01-25T13:10:41;97671.48;;;5.12;100.00
50011;BME280;35899;50.352;19.390;2024-01-25T13:13:11;97670.33;;;5.18;100.00
50011;BME280;35899;50.352;19.390;2024-01-25T13:15:37;97675.56;;;5.19;100.00
50011;BME280;35899;50.352;19.390;2024-01-25T13:18:07;97670.61;;;5.19;100.00
50011;BME280;35899;50.352;19.390;2024-01-25T13:20:34;97673.92;;;5.21;100.00
50011;BME280;35899;50.352;19.390;2024-01-25T13:23:00;97667.05;;;5.24;100.00
50011;BME280;35899;50.352;19.390;2024-01-25T13:25:34;97674.63;;;5.23;100.00
50011;BME280;35899;50.352;19.390;2024-01-25T13:28:03;97683.65;;;5.22;100.00
50011;BME280;35899;50.352;19.390;2024-01-25T13:30:29;97678.31;;;5.19;100.00
50011;BME280;35899;50.352;19.390;2024-01-25T13:33:01;97687.97;;;5.15;100.00
50011;BME280;35899;50.352;19.390;2024-01-25T13:35:28;97687.38;;;5.13;100.00
50011;BME280;35899;50.352;19.390;2024-01-25T13:37:55;97689.88;;;5.11;100.00
50011;BME280;35899;50.352;19.390;2024-01-25T13:40:22;97690.89;;;5.08;100.00
50011;BME280;35899;50.352;19.390;2024-01-25T13:42:51;97692.23;;;5.05;100.00
50011;BME280;35899;50.352;19.390;2024-01-25T13:45:18;97695.86;;;5.01;100.00
50011;BME280;35899;50.352;19.390;2024-01-25T13:47:45;97702.60;;;4.97;100.00
50011;BME280;35899;50.352;19.390;2024-01-25T13:50:14;97701.94;;;4.93;100.00
50011;BME280;35899;50.352;19.390;2024-01-25T13:52:40;97708.08;;;4.90;100.00
50011;BME280;35899;50.352;19.390;2024-01-25T13:55:07;97707.70;;;4.87;100.00
50011;BME280;35899;50.352;19.390;2024-01-25T13:57:34;97706.11;;;4.82;100.00
50011;BME280;35899;50.352;19.390;2024-01-25T14:00:01;97698.88;;;4.76;100.00
50011;BME280;35899;50.352;19.390;2024-01-25T14:02:31;97710.60;;;4.71;100.00
50011;BME280;35899;50.352;19.390;2024-01-25T14:04:58;97713.95;;;4.69;100.00
50011;BME280;35899;50.352;19.390;2024-01-25T14:07:25;97720.55;;;4.67;100.00
50011;BME280;35899;50.352;19.390;2024-01-25T14:09:52;97725.46;;;4.68;100.00
50011;BME280;35899;50.352;19.390;2024-01-25T14:12:21;97729.05;;;4.68;100.00
50011;BME280;35899;50.352;19.390;2024-01-25T14:14:48;97729.42;;;4.68;100.00
50011;BME280;35899;50.352;19.390;2024-01-25T14:17:16;97732.66;;;4.68;100.00
50011;BME280;35899;50.352;19.390;2024-01-25T14:19:45;97743.85;;;4.67;100.00
50011;BME280;35899;50.352;19.390;2024-01-25T14:22:12;97740.77;;;4.64;100.00
50011;BME280;35899;50.352;19.390;2024-01-25T14:24:56;97741.34;;;4.59;100.00
50011;BME280;35899;50.352;19.390;2024-01-25T14:27:24;97747.00;;;4.55;100.00
50011;BME280;35899;50.352;19.390;2024-01-25T14:29:51;97748.10;;;4.54;100.00
50011;BME280;35899;50.352;19.390;2024-01-25T14:32:21;97755.52;;;4.53;100.00
50011;BME280;35899;50.352;19.390;2024-01-25T14:34:47;97744.59;;;4.52;100.00
50011;BME280;35899;50.352;19.390;2024-01-25T14:37:14;97755.27;;;4.51;100.00
50011;BME280;35899;50.352;19.390;2024-01-25T14:39:43;97745.63;;;4.48;100.00
50011;BME280;35899;50.352;19.390;2024-01-25T14:42:29;97750.79;;;4.45;100.00
50011;BME280;35899;50.352;19.390;2024-01-25T14:44:59;97759.28;;;4.42;100.00
50011;BME280;35899;50.352;19.390;2024-01-25T14:47:25;97762.98;;;4.40;100.00
50011;BME280;35899;50.352;19.390;2024-01-25T14:49:52;97771.56;;;4.36;100.00
50011;BME280;35899;50.352;19.390;2024-01-25T14:52:19;97773.44;;;4.33;100.00
50011;BME280;35899;50.352;19.390;2024-01-25T14:54:46;97776.43;;;4.31;100.00
50011;BME280;35899;50.352;19.390;2024-01-25T14:57:12;97773.63;;;4.29;100.00
50011;BME280;35899;50.352;19.390;2024-01-25T14:59:39;97773.87;;;4.27;100.00
50011;BME280;35899;50.352;19.390;2024-01-25T15:02:06;97778.89;;;4.26;100.00
50011;BME280;35899;50.352;19.390;2024-01-25T15:04:35;97781.63;;;4.26;100.00
50011;BME280;35899;50.352;19.390;2024-01-25T15:07:06;97786.12;;;4.25;100.00
50011;BME280;35899;50.352;19.390;2024-01-25T15:09:36;97778.21;;;4.26;100.00
50011;BME280;35899;50.352;19.390;2024-01-25T15:12:03;97786.11;;;4.25;100.00
50011;BME280;35899;50.352;19.390;2024-01-25T15:14:30;97789.54;;;4.25;100.00
50011;BME280;35899;50.352;19.390;2024-01-25T15:16:56;97789.34;;;4.26;100.00
50011;BME280;35899;50.352;19.390;2024-01-25T15:19:23;97792.75;;;4.26;100.00
50011;BME280;35899;50.352;19.390;2024-01-25T15:21:49;97788.26;;;4.27;100.00
50011;BME280;35899;50.352;19.390;2024-01-25T15:24:16;97794.39;;;4.28;100.00
50011;BME280;35899;50.352;19.390;2024-01-25T15:26:43;97804.98;;;4.29;100.00
50011;BME280;35899;50.352;19.390;2024-01-25T15:29:12;97813.64;;;4.30;100.00
50011;BME280;35899;50.352;19.390;2024-01-25T15:31:39;97811.40;;;4.30;100.00
50011;BME280;35899;50.352;19.390;2024-01-25T15:34:06;97816.72;;;4.30;100.00
50011;BME280;35899;50.352;19.390;2024-01-25T15:36:33;97819.33;;;4.29;100.00
50011;BME280;35899;50.352;19.390;2024-01-25T15:39:02;97817.15;;;4.28;100.00
50011;BME280;35899;50.352;19.390;2024-01-25T15:41:29;97818.20;;;4.28;100.00
50011;BME280;35899;50.352;19.390;2024-01-25T15:43:58;97824.84;;;4.29;100.00
50011;BME280;35899;50.352;19.390;2024-01-25T15:46:27;97832.94;;;4.28;100.00
50011;BME280;35899;50.352;19.390;2024-01-25T15:48:53;97827.32;;;4.27;100.00
50011;BME280;35899;50.352;19.390;2024-01-25T15:51:20;97827.69;;;4.26;100.00
50011;BME280;35899;50.352;19.390;2024-01-25T15:53:48;97838.47;;;4.27;100.00
50011;BME280;35899;50.352;19.390;2024-01-25T15:56:15;97839.50;;;4.26;100.00
50011;BME280;35899;50.352;19.390;2024-01-25T15:58:41;97840.73;;;4.26;100.00
50011;BME280;35899;50.352;19.390;2024-01-25T16:01:10;97847.06;;;4.26;100.00
50011;BME280;35899;50.352;19.390;2024-01-25T16:03:37;97854.58;;;4.26;100.00
50011;BME280;35899;50.352;19.390;2024-01-25T16:06:06;97854.45;;;4.25;100.00
50011;BME280;35899;50.352;19.390;2024-01-25T16:08:33;97856.49;;;4.26;100.00
50011;BME280;35899;50.352;19.390;2024-01-25T16:11:05;97867.30;;;4.25;100.00
50011;BME280;35899;50.352;19.390;2024-01-25T16:13:31;97874.22;;;4.24;100.00
50011;BME280;35899;50.352;19.390;2024-01-25T16:15:58;97875.77;;;4.24;100.00
50011;BME280;35899;50.352;19.390;2024-01-25T16:18:25;97888.34;;;4.22;100.00
50011;BME280;35899;50.352;19.390;2024-01-25T16:20:52;97885.02;;;4.20;100.00
50011;BME280;35899;50.352;19.390;2024-01-25T16:23:18;97884.48;;;4.17;100.00
50011;BME280;35899;50.352;19.390;2024-01-25T16:25:45;97886.55;;;4.13;100.00
50011;BME280;35899;50.352;19.390;2024-01-25T16:28:12;97886.42;;;4.08;100.00
50011;BME280;35899;50.352;19.390;2024-01-25T16:30:38;97887.94;;;4.01;100.00
50011;BME280;35899;50.352;19.390;2024-01-25T16:33:05;97884.75;;;3.96;100.00
50011;BME280;35899;50.352;19.390;2024-01-25T16:35:32;97883.98;;;3.89;100.00
50011;BME280;35899;50.352;19.390;2024-01-25T16:37:59;97891.00;;;3.85;100.00
50011;BME280;35899;50.352;19.390;2024-01-25T16:40:25;97890.29;;;3.82;100.00
50011;BME280;35899;50.352;19.390;2024-01-25T16:42:53;97890.59;;;3.79;100.00
50011;BME280;35899;50.352;19.390;2024-01-25T16:45:21;97887.48;;;3.76;100.00
50011;BME280;35899;50.352;19.390;2024-01-25T16:47:49;97894.54;;;3.75;100.00
50011;BME280;35899;50.352;19.390;2024-01-25T16:50:17;97891.19;;;3.73;100.00
50011;BME280;35899;50.352;19.390;2024-01-25T16:52:45;97896.54;;;3.72;100.00
50011;BME280;35899;50.352;19.390;2024-01-25T16:55:13;97898.58;;;3.72;100.00
50011;BME280;35899;50.352;19.390;2024-01-25T16:57:39;97899.77;;;3.72;100.00
50011;BME280;35899;50.352;19.390;2024-01-25T17:00:10;97909.83;;;3.73;100.00
50011;BME280;35899;50.352;19.390;2024-01-25T17:02:36;97908.14;;;3.73;100.00
50011;BME280;35899;50.352;19.390;2024-01-25T17:05:03;97913.45;;;3.72;100.00
50011;BME280;35899;50.352;19.390;2024-01-25T17:07:30;97913.48;;;3.72;100.00
50011;BME280;35899;50.352;19.390;2024-01-25T17:09:58;97921.57;;;3.71;100.00
50011;BME280;35899;50.352;19.390;2024-01-25T17:12:25;97916.84;;;3.69;100.00
50011;BME280;35899;50.352;19.390;2024-01-25T17:14:54;97918.80;;;3.68;100.00
50011;BME280;35899;50.352;19.390;2024-01-25T17:17:21;97920.26;;;3.65;100.00
50011;BME280;35899;50.352;19.390;2024-01-25T17:19:48;97925.29;;;3.64;100.00
50011;BME280;35899;50.352;19.390;2024-01-25T17:22:14;97920.90;;;3.63;100.00
50011;BME280;35899;50.352;19.390;2024-01-25T17:24:42;97930.55;;;3.61;100.00
50011;BME280;35899;50.352;19.390;2024-01-25T17:27:09;97933.02;;;3.59;100.00
50011;BME280;35899;50.352;19.390;2024-01-25T17:29:36;97934.90;;;3.55;100.00
50011;BME280;35899;50.352;19.390;2024-01-25T17:32:05;97938.92;;;3.52;100.00
50011;BME280;35899;50.352;19.390;2024-01-25T17:34:34;97939.78;;;3.49;100.00
50011;BME280;35899;50.352;19.390;2024-01-25T17:37:03;97946.58;;;3.45;100.00
50011;BME280;35899;50.352;19.390;2024-01-25T17:39:30;97947.73;;;3.43;100.00
50011;BME280;35899;50.352;19.390;2024-01-25T17:42:02;97949.31;;;3.41;100.00
50011;BME280;35899;50.352;19.390;2024-01-25T17:44:33;97949.39;;;3.40;100.00
50011;BME280;35899;50.352;19.390;2024-01-25T17:47:00;97951.16;;;3.38;100.00
50011;BME280;35899;50.352;19.390;2024-01-25T17:49:27;97956.37;;;3.36;100.00
50011;BME280;35899;50.352;19.390;2024-01-25T17:51:54;97955.02;;;3.36;100.00
50011;BME280;35899;50.352;19.390;2024-01-25T17:54:21;97964.44;;;3.36;100.00